Clacton-on-Sea, United Kingdom
Current Conditions -  °F | °C
As of 6:50 AM on Saturday 25 Oct 2014 (Local Time) from EGUW Reporting Station
Haze Haze  
Wind Chill: 41°   Ceiling: Unl
Heat Index: 45°   Visibility: 4mi
Dew Point: 43°   Wind: 7mph
Humidity: 93%   Direction: 220°SW
Pressure: 30"   Gusts: NA
Location:  51.79°N, 1.16°E
Report Text: EGUW 250550Z AUTO 22006KT 7000 BR NCD 07/06 Q1016
Loading
Personal Weather Stations






























Interactive Weather Map
Tropical Storm Tracking
New forecast layout! Learn more

10-Day Weather Forecast

Advertisements
Track Severe Weather on mobile